Terminal Aerodrome Forecast
Issued by NWS Louisville, KY

Home | Current Version | Previous Version | Text Only | Print | Product List | Glossary On
Versions: 1 2 3 4 5 6 7 8 9 10 11 12 13 14
381
FTUS43 KLMK 032323
TAFLEX
TAF
KLEX 032323Z 0400/0424 VRB05KT P6SM BKN040 OVC070
     FM041300 24011G17KT P6SM SCT040 BKN070
     FM041600 24012G18KT P6SM VCSH SCT020 BKN030
     FM042000 28013G19KT P6SM VCSH BKN020=

USA.gov is the U.S. government's official web portal to all federal, state and local government web resources and services.